»·PEaware :: N56LW KSAN-KVNY

N56LW :: KSAN-KVNY

FLIGHT INFORMATION

Flight Status: Arrived
Operator: Privately registered:
United States
More flights under this callsign
Pilot: Nate M. (12976)
Aircraft: CESSNA 525 CITATION JET CJ1
(C525)
More flights by this aircraft type
Origin: KSAN San Diego Intl-Lindbergh
United States
Destination: KVNY Van Nuys
United States
More flights between these airports :: More routes between these airports
Route: +CWARD2 LAX CANOG
File this flight plan on PilotEdge
Remarks: SANN16R
Altitude:
(Current/Filed)
10,000ft
Speed:
(Current/Filed)
350kts
Departed: 06-May-18 04:25 PM
Arrived: 06-May-18 04:56 PM
Distance/Time
Traveled:
110nm/0:31
Distance/Time
To Go:
Arrived

Flight Plot

Page will automatically refresh every two minutes.

Flight plan parsing failed; only flown route is shown


Map Options




Map Legend


Flown Route
Filed Route
Departure Airport
Arrival Airport
Navaid (VOR, NDB)
Fix

Horizontal Profiles

Position Reports

Time Latitude Longitude Heading Altitude Ground
Speed
06-May-18 16:01 32.732412 -117.176632 193 21ft 0kts
06-May-18 16:02 32.732412 -117.176632 193 21ft 0kts
06-May-18 16:03 32.732412 -117.176632 193 21ft 0kts
06-May-18 16:04 32.732412 -117.176632 193 21ft 0kts
06-May-18 16:05 32.732412 -117.176632 193 21ft 0kts
06-May-18 16:06 32.732412 -117.176632 193 21ft 0kts
06-May-18 16:07 32.732412 -117.176632 193 21ft 0kts
06-May-18 16:08 32.732412 -117.176632 193 21ft 0kts
06-May-18 16:09 32.732412 -117.176632 193 21ft 0kts
06-May-18 16:10 32.732412 -117.176632 193 21ft 0kts
06-May-18 16:11 32.732412 -117.176632 193 21ft 0kts
06-May-18 16:12 32.732412 -117.176632 193 21ft 0kts
06-May-18 16:13 32.732412 -117.176632 193 21ft 0kts
06-May-18 16:14 32.732412 -117.176632 193 21ft 0kts
06-May-18 16:15 32.732412 -117.176632 193 21ft 0kts
06-May-18 16:16 32.732412 -117.176632 193 21ft 0kts
06-May-18 16:17 32.732412 -117.176632 193 21ft 0kts
06-May-18 16:18 32.732412 -117.176632 193 21ft 0kts
06-May-18 16:19 32.732412 -117.176632 193 21ft 0kts
06-May-18 16:20 32.732412 -117.176632 193 21ft 0kts
06-May-18 16:21 32.732412 -117.176632 193 21ft 0kts
06-May-18 16:21 32.732412 -117.176632 193 21ft 0kts
06-May-18 16:22 32.730800 -117.175433 134 21ft 0kts
06-May-18 16:23 32.730800 -117.175433 134 21ft 0kts
06-May-18 16:24 32.736683 -117.202082 287 653ft 182kts
06-May-18 16:25 32.771517 -117.266684 300 2785ft 258kts
06-May-18 16:26 32.810623 -117.338983 308 4772ft 264kts
06-May-18 16:27 32.855932 -117.408856 307 5997ft 274kts
06-May-18 16:28 32.902017 -117.480523 307 6002ft 272kts
06-May-18 16:29 32.947397 -117.551273 307 6644ft 262kts
06-May-18 16:30 32.991691 -117.620466 307 9135ft 263kts
06-May-18 16:31 33.038992 -117.694078 307 10020ft 323kts
06-May-18 16:32 33.107722 -117.773954 319 9983ft 346kts
06-May-18 16:33 33.180097 -117.846810 324 9986ft 339kts
06-May-18 16:34 33.269714 -117.878240 346 9869ft 340kts
06-May-18 16:35 33.364024 -117.903847 346 8909ft 350kts
06-May-18 16:36 33.441482 -117.963982 321 7821ft 292kts
06-May-18 16:37 33.501742 -118.020604 321 6788ft 272kts
06-May-18 16:38 33.560454 -118.076248 321 6002ft 262kts
06-May-18 16:39 33.617766 -118.130687 321 6008ft 269kts
06-May-18 16:40 33.676208 -118.186298 321 6016ft 276kts
06-May-18 16:41 33.735502 -118.242822 321 6000ft 272kts
06-May-18 16:42 33.792012 -118.296789 321 5973ft 223kts
06-May-18 16:43 33.841226 -118.343864 321 5999ft 228kts
06-May-18 16:44 33.890785 -118.391342 321 6000ft 229kts
06-May-18 16:45 33.941888 -118.436141 333 6009ft 228kts
06-May-18 16:46 33.999111 -118.468828 335 5997ft 228kts
06-May-18 16:47 34.056042 -118.500692 335 5004ft 224kts
06-May-18 16:48 34.112677 -118.532341 335 4996ft 225kts
06-May-18 16:49 34.155164 -118.578942 273 5021ft 226kts
06-May-18 16:50 34.157204 -118.652387 277 4384ft 215kts
06-May-18 16:51 34.194177 -118.643615 89 4028ft 211kts
06-May-18 16:52 34.210219 -118.573627 55 2783ft 201kts
06-May-18 16:53 34.224619 -118.537626 72 2000ft 163kts
06-May-18 16:54 34.228571 -118.506017 99 1683ft 132kts
06-May-18 16:55 34.207291 -118.490206 176 772ft 30kts

Navigation Log

Ident Type
Flight plan parsing failed, navigation log unavailable